createdAt,value
2022-11-30T00:01:18.770Z,96590.59
2022-11-30T00:03:46.229Z,96561.94
2022-11-30T00:06:15.176Z,96560.66
2022-11-30T00:08:41.954Z,96589.53
2022-11-30T00:11:09.476Z,96581.22
2022-11-30T00:13:36.163Z,96564.31
2022-11-30T00:16:03.131Z,96553.09
2022-11-30T00:18:29.746Z,96562.22
2022-11-30T00:21:00.126Z,96555.72
2022-11-30T00:23:27.106Z,96547.63
2022-11-30T00:25:53.685Z,96547.63
2022-11-30T00:28:20.296Z,96582.78
2022-11-30T00:30:56.984Z,96561.69
2022-11-30T00:33:23.623Z,96549.97
2022-11-30T00:36:01.192Z,96581.50
2022-11-30T00:38:28.188Z,96562.47
2022-11-30T00:40:54.838Z,96572.38
2022-11-30T00:43:21.499Z,96539.81
2022-11-30T00:45:48.170Z,96565.31
2022-11-30T00:48:14.941Z,96591.38
2022-11-30T00:50:41.894Z,96557.78
2022-11-30T00:53:08.497Z,96530.69
2022-11-30T00:55:35.165Z,96558.03
2022-11-30T00:58:01.832Z,96583.03
2022-11-30T01:00:29.398Z,96590.88
2022-11-30T01:02:57.171Z,96577.59
2022-11-30T01:05:25.238Z,96580.19
2022-11-30T01:07:51.974Z,96559.59
2022-11-30T01:10:18.653Z,96563.53
2022-11-30T01:12:45.771Z,96562.47
2022-11-30T01:15:12.360Z,96596.09
2022-11-30T01:17:38.962Z,96575.22
2022-11-30T01:20:07.978Z,96560.41
2022-11-30T01:22:35.724Z,96579.91
2022-11-30T01:25:02.549Z,96531.97
2022-11-30T01:27:29.259Z,96575.75
2022-11-30T01:29:56.494Z,96574.72
2022-11-30T01:32:23.146Z,96465.84
2022-11-30T01:34:49.741Z,96568.72
2022-11-30T01:37:16.341Z,96564.56
2022-11-30T01:39:42.903Z,96557.25
2022-11-30T01:42:18.271Z,96579.41
2022-11-30T01:44:55.766Z,96581.22
2022-11-30T01:47:39.211Z,96539.03
2022-11-30T01:50:23.534Z,96575.25
2022-11-30T01:52:56.491Z,96551.78
2022-11-30T01:55:28.964Z,96583.03
2022-11-30T01:58:19.470Z,96577.06
2022-11-30T02:00:48.154Z,96582.78
2022-11-30T02:03:36.559Z,96539.03
2022-11-30T02:06:03.245Z,96547.09
2022-11-30T02:08:30.902Z,96543.19
2022-11-30T02:11:08.253Z,96583.81
2022-11-30T02:13:53.028Z,96580.97
2022-11-30T02:16:30.797Z,96589.03
2022-11-30T02:19:22.457Z,96595.03
2022-11-30T02:21:59.047Z,96594.25
2022-11-30T02:24:37.930Z,96593.97
2022-11-30T02:27:30.359Z,96596.88
2022-11-30T02:30:02.599Z,96575.22
2022-11-30T02:32:34.967Z,96607.78
2022-11-30T02:35:04.601Z,96592.94
2022-11-30T02:37:33.790Z,96603.34
2022-11-30T02:40:00.530Z,96611.41
2022-11-30T02:42:27.115Z,96588.22
2022-11-30T02:44:54.544Z,96616.91
2022-11-30T02:47:36.396Z,96609.06
2022-11-30T02:50:17.787Z,96590.84
2022-11-30T02:52:45.365Z,96572.59
2022-11-30T02:55:16.714Z,96578.63
2022-11-30T02:57:43.335Z,96622.38
2022-11-30T03:00:12.122Z,96577.31
2022-11-30T03:02:39.836Z,96604.16
2022-11-30T03:05:08.248Z,96617.41
2022-11-30T03:07:35.268Z,96593.19
2022-11-30T03:10:01.973Z,96580.16
2022-11-30T03:12:29.257Z,96599.19
2022-11-30T03:14:55.848Z,96601.53
2022-11-30T03:17:22.442Z,96617.16
2022-11-30T03:19:49.302Z,96596.81
2022-11-30T03:22:16.081Z,96587.19
2022-11-30T03:24:42.625Z,96587.97
2022-11-30T03:27:09.217Z,96621.31
2022-11-30T03:29:35.789Z,96607.50
2022-11-30T03:32:02.427Z,96599.19
2022-11-30T03:34:29.019Z,96614.81
2022-11-30T03:36:55.904Z,96619.00
2022-11-30T03:39:23.534Z,96603.34
2022-11-30T03:41:50.704Z,96630.44
2022-11-30T03:44:17.743Z,96605.16
2022-11-30T03:46:44.620Z,96630.19
2022-11-30T03:49:11.257Z,96615.31
2022-11-30T03:51:37.988Z,96597.84
2022-11-30T03:54:04.618Z,96620.56
2022-11-30T03:56:31.210Z,96618.69
2022-11-30T03:58:57.862Z,96614.53
2022-11-30T04:01:24.808Z,96627.84
2022-11-30T04:03:52.491Z,96629.94
2022-11-30T04:06:19.849Z,96627.84
2022-11-30T04:08:46.907Z,96628.06
2022-11-30T04:11:13.825Z,96623.69
2022-11-30T04:13:41.529Z,96612.47
2022-11-30T04:16:08.779Z,96625.72
2022-11-30T04:18:36.883Z,96583.75
2022-11-30T04:21:04.683Z,96623.09
2022-11-30T04:23:34.254Z,96625.97
2022-11-30T04:26:03.952Z,96601.47
2022-11-30T04:28:30.526Z,96605.91
2022-11-30T04:30:57.264Z,96622.06
2022-11-30T04:33:23.932Z,96621.03
2022-11-30T04:35:54.569Z,96622.59
2022-11-30T04:38:21.195Z,96608.25
2022-11-30T04:40:47.742Z,96626.75
2022-11-30T04:43:14.386Z,96628.06
2022-11-30T04:45:41.432Z,96630.41
2022-11-30T04:48:08.223Z,96635.59
2022-11-30T04:50:35.609Z,96638.75
2022-11-30T04:53:02.453Z,96641.34
2022-11-30T04:55:29.063Z,96632.22
2022-11-30T04:57:55.804Z,96643.97
2022-11-30T05:00:22.555Z,96643.19
2022-11-30T05:02:52.832Z,96580.38
2022-11-30T05:05:20.227Z,96632.50
2022-11-30T05:07:50.841Z,96648.13
2022-11-30T05:10:17.618Z,96611.09
2022-11-30T05:12:44.224Z,96637.69
2022-11-30T05:15:11.218Z,96639.25
2022-11-30T05:17:37.838Z,96639.25
2022-11-30T05:20:05.055Z,96634.81
2022-11-30T05:22:31.662Z,96649.09
2022-11-30T05:24:58.360Z,96594.41
2022-11-30T05:27:24.985Z,96641.84
2022-11-30T05:29:51.687Z,96646.78
2022-11-30T05:32:18.689Z,96644.75
2022-11-30T05:34:51.197Z,96650.72
2022-11-30T05:37:19.224Z,96636.09
2022-11-30T05:39:45.808Z,96663.97
2022-11-30T05:42:12.430Z,96632.41
2022-11-30T05:44:38.990Z,96630.34
2022-11-30T05:47:05.956Z,96653.28
2022-11-30T05:49:32.587Z,96653.03
2022-11-30T05:51:59.166Z,96659.28
2022-11-30T05:54:25.790Z,96646.78
2022-11-30T05:56:54.913Z,96615.22
2022-11-30T05:59:22.742Z,96616.25
2022-11-30T06:01:52.005Z,96651.97
2022-11-30T06:04:18.725Z,96653.78
2022-11-30T06:06:45.309Z,96649.09
2022-11-30T06:09:11.890Z,96668.44
2022-11-30T06:11:38.461Z,96663.75
2022-11-30T06:14:05.246Z,96673.91
2022-11-30T06:16:31.880Z,96630.38
2022-11-30T06:18:58.475Z,96673.91
2022-11-30T06:21:25.167Z,96646.75
2022-11-30T06:23:52.503Z,96667.63
2022-11-30T06:26:19.204Z,96663.72
2022-11-30T06:28:48.497Z,96659.81
2022-11-30T06:31:16.604Z,96677.53
2022-11-30T06:33:43.449Z,96663.94
2022-11-30T06:36:10.556Z,96686.88
2022-11-30T06:38:37.385Z,96679.06
2022-11-30T06:41:09.395Z,96684.28
2022-11-30T06:43:37.126Z,96651.97
2022-11-30T06:46:04.851Z,96657.44
2022-11-30T06:48:31.856Z,96651.97
2022-11-30T06:50:58.981Z,96636.56
2022-11-30T06:53:25.880Z,96669.19
2022-11-30T06:55:53.359Z,96663.47
2022-11-30T06:58:20.081Z,96691.09
2022-11-30T07:00:46.927Z,96662.41
2022-11-30T07:03:14.239Z,96685.63
2022-11-30T07:05:43.912Z,96677.00
2022-11-30T07:08:15.103Z,96665.19
2022-11-30T07:10:43.468Z,96696.25
2022-11-30T07:13:12.065Z,96687.94
2022-11-30T07:15:40.309Z,96689.44
2022-11-30T07:18:07.614Z,96684.50
2022-11-30T07:20:34.567Z,96698.59
2022-11-30T07:23:20.345Z,96657.88
2022-11-30T07:26:05.667Z,96671.22
2022-11-30T07:28:33.609Z,96679.50
2022-11-30T07:31:00.205Z,96672.47
2022-11-30T07:33:26.784Z,96702.44
2022-11-30T07:35:54.421Z,96691.47
2022-11-30T07:38:21.011Z,96680.28
2022-11-30T07:40:47.650Z,96707.41
2022-11-30T07:43:14.296Z,96681.56
2022-11-30T07:45:40.900Z,96700.38
2022-11-30T07:48:08.022Z,96671.44
2022-11-30T07:50:34.586Z,96719.69
2022-11-30T07:53:01.167Z,96676.88
2022-11-30T07:55:27.772Z,96719.16
2022-11-30T07:57:54.429Z,96684.97
2022-11-30T08:00:21.043Z,96692.81
2022-11-30T08:02:50.622Z,96684.44
2022-11-30T08:05:17.514Z,96681.53
2022-11-30T08:07:45.786Z,96724.31
2022-11-30T08:10:12.488Z,96697.44
2022-11-30T08:12:39.216Z,96721.41
2022-11-30T08:15:27.532Z,96688.28
2022-11-30T08:17:55.311Z,96685.41
2022-11-30T08:20:22.332Z,96694.00
2022-11-30T08:22:49.640Z,96716.44
2022-11-30T08:25:16.326Z,96706.25
2022-11-30T08:27:43.015Z,96665.25
2022-11-30T08:30:09.901Z,96736.50
2022-11-30T08:32:36.493Z,96723.16
2022-11-30T08:35:03.200Z,96725.25
2022-11-30T08:37:29.789Z,96719.81
2022-11-30T08:39:56.412Z,96728.44
2022-11-30T08:42:22.997Z,96732.31
2022-11-30T08:44:49.662Z,96733.63
2022-11-30T08:47:16.331Z,96731.53
2022-11-30T08:49:42.981Z,96729.47
2022-11-30T08:52:18.249Z,96768.38
2022-11-30T08:54:47.626Z,96773.56
2022-11-30T08:57:20.158Z,96772.31
2022-11-30T08:59:47.289Z,96754.31
2022-11-30T09:02:17.711Z,96765.78
2022-11-30T09:04:45.488Z,96767.63
2022-11-30T09:07:12.093Z,96750.28
2022-11-30T09:09:39.121Z,96785.28
2022-11-30T09:12:07.124Z,96721.84
2022-11-30T09:14:33.872Z,96774.59
2022-11-30T09:17:00.567Z,96801.22
2022-11-30T09:19:27.233Z,96777.16
2022-11-30T09:21:54.542Z,96806.91
2022-11-30T09:24:21.237Z,96792.06
2022-11-30T09:26:48.082Z,96772.47
2022-11-30T09:29:14.831Z,96780.28
2022-11-30T09:31:41.463Z,96758.88
2022-11-30T09:34:11.417Z,96771.09
2022-11-30T09:36:38.244Z,96790.47
2022-11-30T09:39:04.975Z,96792.13
2022-11-30T09:41:59.374Z,96789.50
2022-11-30T09:44:37.606Z,96793.94
2022-11-30T09:47:27.722Z,96800.97
2022-11-30T09:49:58.445Z,96801.69
2022-11-30T09:52:39.224Z,96795.44
2022-11-30T09:55:10.153Z,96754.50
2022-11-30T09:57:39.974Z,96791.78
2022-11-30T10:00:15.185Z,96770.91
2022-11-30T10:02:42.305Z,96787.94
2022-11-30T10:05:16.225Z,96774.13
2022-11-30T10:08:07.657Z,96797.38
2022-11-30T10:10:44.757Z,96767.84
2022-11-30T10:13:47.875Z,96793.72
2022-11-30T10:16:23.571Z,96795.81
2022-11-30T10:19:15.248Z,96797.09
2022-11-30T10:21:44.917Z,96788.50
2022-11-30T10:24:17.538Z,96787.97
2022-11-30T10:26:58.846Z,96781.72
2022-11-30T10:29:35.168Z,96751.66
2022-11-30T10:32:13.514Z,96777.28
2022-11-30T10:34:43.081Z,96773.13
2022-11-30T10:37:19.068Z,96768.69
2022-11-30T10:40:09.935Z,96776.53
2022-11-30T10:42:50.436Z,96772.94
2022-11-30T10:45:22.970Z,96749.44
2022-11-30T10:48:03.768Z,96738.75
2022-11-30T10:50:30.951Z,96756.50
2022-11-30T10:52:59.950Z,96741.88
2022-11-30T10:55:31.094Z,96757.56
2022-11-30T10:58:07.370Z,96760.38
2022-11-30T11:00:33.956Z,96724.13
2022-11-30T11:03:00.575Z,96739.03
2022-11-30T11:05:29.758Z,96765.63
2022-11-30T11:08:06.293Z,96726.50
2022-11-30T11:10:42.802Z,96751.28
2022-11-30T11:13:35.004Z,96770.81
2022-11-30T11:16:03.397Z,96769.25
2022-11-30T11:18:32.082Z,96771.06
2022-11-30T11:21:06.240Z,96763.53
2022-11-30T11:23:38.952Z,96742.34
2022-11-30T11:26:19.534Z,96748.38
2022-11-30T11:28:50.158Z,96754.38
2022-11-30T11:31:36.608Z,96747.06
2022-11-30T11:34:04.989Z,96768.94
2022-11-30T11:36:33.807Z,96766.34
2022-11-30T11:39:01.172Z,96761.69
2022-11-30T11:41:29.315Z,96769.72
2022-11-30T11:44:10.086Z,96772.06
2022-11-30T11:46:58.025Z,96768.38
2022-11-30T11:49:32.327Z,96767.06
2022-11-30T11:52:07.024Z,96767.59
2022-11-30T11:54:57.270Z,96769.16
2022-11-30T11:57:36.182Z,96773.03
2022-11-30T12:00:16.409Z,96774.41
2022-11-30T12:03:11.354Z,96781.66
2022-11-30T12:05:44.003Z,96765.81
2022-11-30T12:08:15.924Z,96731.84
2022-11-30T12:10:52.894Z,96770.75
2022-11-30T12:13:22.731Z,96775.91
2022-11-30T12:16:04.373Z,96777.47
2022-11-30T12:18:38.426Z,96743.72
2022-11-30T12:21:12.954Z,96777.16
2022-11-30T12:23:45.674Z,96780.28
2022-11-30T12:26:18.685Z,96780.84
2022-11-30T12:29:29.862Z,96773.25
2022-11-30T12:32:10.101Z,96778.19
2022-11-30T12:34:51.568Z,96776.09
2022-11-30T12:37:24.095Z,96768.56
2022-11-30T12:40:02.691Z,96774.78
2022-11-30T12:42:44.449Z,96773.56
2022-11-30T12:45:17.058Z,96778.44
2022-11-30T12:48:01.929Z,96775.59
2022-11-30T12:50:57.829Z,96757.25
2022-11-30T12:53:50.134Z,96750.44
2022-11-30T12:56:30.416Z,96763.03
2022-11-30T12:59:14.202Z,96769.28
2022-11-30T13:01:59.858Z,96774.47
2022-11-30T13:04:36.432Z,96767.72
2022-11-30T13:07:11.854Z,96774.28
2022-11-30T13:09:47.775Z,96742.66
2022-11-30T13:12:38.165Z,96734.53
2022-11-30T13:15:17.896Z,96754.63
2022-11-30T13:17:45.794Z,96758.53
2022-11-30T13:20:31.087Z,96791.75
2022-11-30T13:23:31.602Z,96792.69
2022-11-30T13:26:22.503Z,96775.38
2022-11-30T13:29:05.368Z,96789.81
2022-11-30T13:31:39.378Z,96787.91
2022-11-30T13:34:23.349Z,96792.88
2022-11-30T13:36:50.091Z,96754.81
2022-11-30T13:39:27.933Z,96792.16
2022-11-30T13:42:00.677Z,96796.13
2022-11-30T13:44:32.532Z,96802.16
2022-11-30T13:47:05.032Z,96758.66
2022-11-30T13:49:35.709Z,96759.50
2022-11-30T13:54:54.516Z,96769.97
2022-11-30T13:57:24.458Z,96793.97
2022-11-30T13:59:53.449Z,96786.16
2022-11-30T14:02:32.506Z,96793.91
2022-11-30T14:05:17.599Z,96793.41
2022-11-30T14:08:10.043Z,96796.91
2022-11-30T14:10:37.981Z,96798.72
2022-11-30T14:13:10.706Z,96803.94
2022-11-30T14:15:43.324Z,96807.34
2022-11-30T14:18:09.943Z,96797.38
2022-11-30T14:20:44.659Z,96803.88
2022-11-30T14:23:21.734Z,96805.38
2022-11-30T14:25:51.326Z,96792.59
2022-11-30T14:28:40.445Z,96767.47
2022-11-30T14:31:20.791Z,96799.09
2022-11-30T14:33:53.907Z,96773.25
2022-11-30T14:36:22.843Z,96793.66
2022-11-30T14:38:49.538Z,96795.91
2022-11-30T14:41:25.913Z,96799.34
2022-11-30T14:43:58.861Z,96807.69
2022-11-30T14:46:26.936Z,96784.63
2022-11-30T14:49:15.935Z,96765.81
2022-11-30T14:51:50.980Z,96781.94
2022-11-30T14:54:26.605Z,96767.19
2022-11-30T14:57:00.261Z,96782.38
2022-11-30T14:59:29.723Z,96800.94
2022-11-30T15:02:03.601Z,96802.84
2022-11-30T15:04:31.055Z,96802.47
2022-11-30T15:06:58.689Z,96810.75
2022-11-30T15:09:31.353Z,96802.84
2022-11-30T15:11:58.671Z,96805.78
2022-11-30T15:14:25.490Z,96812.03
2022-11-30T15:16:54.369Z,96795.31
2022-11-30T15:19:27.176Z,96809.69
2022-11-30T15:21:55.972Z,96788.22
2022-11-30T15:24:22.852Z,96805.25
2022-11-30T15:27:10.035Z,96761.78
2022-11-30T15:29:42.729Z,96777.41
2022-11-30T15:32:17.236Z,96787.16
2022-11-30T15:34:54.899Z,96815.56
2022-11-30T15:37:40.984Z,96808.03
2022-11-30T15:40:10.686Z,96822.66
2022-11-30T15:42:40.499Z,96810.38
2022-11-30T15:45:18.396Z,96773.84
2022-11-30T15:47:45.187Z,96801.94
2022-11-30T15:50:26.736Z,96818.41
2022-11-30T15:52:55.418Z,96815.66
2022-11-30T15:55:46.248Z,96805.69
2022-11-30T15:58:34.312Z,96820.25
2022-11-30T16:01:11.433Z,96824.13
2022-11-30T16:03:59.534Z,96830.91
2022-11-30T16:06:32.146Z,96823.53
2022-11-30T16:09:04.303Z,96807.41
2022-11-30T16:11:30.982Z,96807.63
2022-11-30T16:13:57.746Z,96819.19
2022-11-30T16:16:28.687Z,96834.91
2022-11-30T16:18:55.309Z,96834.31
2022-11-30T16:21:21.937Z,96832.97
2022-11-30T16:23:48.859Z,96830.63
2022-11-30T16:29:04.652Z,96815.63
2022-11-30T16:31:31.680Z,96813.00
2022-11-30T16:33:58.331Z,96829.06
2022-11-30T16:36:24.928Z,96819.78
2022-11-30T16:38:53.032Z,96837.13
2022-11-30T16:41:22.694Z,96848.84
2022-11-30T16:43:51.771Z,96843.81
2022-11-30T16:46:23.704Z,96844.31
2022-11-30T16:48:50.657Z,96847.72
2022-11-30T16:51:24.156Z,96848.84
2022-11-30T16:53:51.087Z,96830.72
2022-11-30T16:56:17.804Z,96815.13
2022-11-30T16:58:45.932Z,96825.84
2022-11-30T17:01:29.051Z,96844.97
2022-11-30T17:03:59.172Z,96827.25
2022-11-30T17:06:28.558Z,96825.88
2022-11-30T17:08:55.215Z,96823.25
2022-11-30T17:11:25.436Z,96857.44
2022-11-30T17:13:52.064Z,96818.81
2022-11-30T17:16:18.737Z,96811.41
2022-11-30T17:18:45.526Z,96810.56
2022-11-30T17:21:17.966Z,96854.94
2022-11-30T17:23:44.974Z,96795.09
2022-11-30T17:26:13.330Z,96855.47
2022-11-30T17:28:41.588Z,96816.69
2022-11-30T17:31:09.012Z,96856.66
2022-11-30T17:33:36.893Z,96840.66
2022-11-30T17:36:06.464Z,96822.25
2022-11-30T17:38:35.333Z,96855.88
2022-11-30T17:41:11.038Z,96870.94
2022-11-30T17:43:39.591Z,96844.03
2022-11-30T17:46:09.007Z,96867.59
2022-11-30T17:48:36.035Z,96860.16
2022-11-30T17:51:03.094Z,96865.25
2022-11-30T17:53:29.955Z,96866.28
2022-11-30T17:56:11.783Z,96865.16
2022-11-30T17:58:43.297Z,96877.50
2022-11-30T18:01:17.169Z,96885.25
2022-11-30T18:03:45.100Z,96860.00
2022-11-30T18:06:12.148Z,96866.78
2022-11-30T18:08:40.071Z,96862.16
2022-11-30T18:11:20.458Z,96879.47
2022-11-30T18:13:48.809Z,96876.00
2022-11-30T18:16:19.920Z,96878.75
2022-11-30T18:18:48.507Z,96856.72
2022-11-30T18:21:18.242Z,96865.06
2022-11-30T18:23:45.225Z,96890.69
2022-11-30T18:26:14.078Z,96893.03
2022-11-30T18:28:41.101Z,96851.44
2022-11-30T18:31:08.014Z,96886.94
2022-11-30T18:33:35.909Z,96839.09
2022-11-30T18:36:08.332Z,96880.72
2022-11-30T18:38:38.490Z,96883.88
2022-11-30T18:41:06.323Z,96879.47
2022-11-30T18:43:34.988Z,96886.72
2022-11-30T18:46:06.590Z,96885.63
2022-11-30T18:48:33.469Z,96867.31
2022-11-30T18:51:08.059Z,96862.88
2022-11-30T18:53:34.659Z,96865.69
2022-11-30T18:56:18.397Z,96885.06
2022-11-30T18:58:46.542Z,96898.66
2022-11-30T19:01:16.244Z,96895.22
2022-11-30T19:03:43.425Z,96880.59
2022-11-30T19:06:11.884Z,96783.38
2022-11-30T19:08:40.500Z,96895.88
2022-11-30T19:11:09.552Z,96901.25
2022-11-30T19:13:36.744Z,96896.81
2022-11-30T19:16:09.058Z,96873.84
2022-11-30T19:18:36.792Z,96892.06
2022-11-30T19:21:11.568Z,96893.66
2022-11-30T19:23:39.214Z,96890.72
2022-11-30T19:26:07.542Z,96872.38
2022-11-30T19:28:36.183Z,96900.44
2022-11-30T19:31:19.822Z,96903.25
2022-11-30T19:33:49.423Z,96849.41
2022-11-30T19:36:18.892Z,96871.88
2022-11-30T19:38:45.892Z,96820.13
2022-11-30T19:41:21.632Z,96867.41
2022-11-30T19:44:01.016Z,96901.22
2022-11-30T19:46:42.749Z,96866.63
2022-11-30T19:49:12.776Z,96896.44
2022-11-30T19:51:52.009Z,96871.84
2022-11-30T19:54:29.147Z,96890.50
2022-11-30T19:56:58.394Z,96898.41
2022-11-30T19:59:30.149Z,96880.34
2022-11-30T20:01:59.408Z,96882.03
2022-11-30T20:04:31.752Z,96819.84
2022-11-30T20:07:01.021Z,96890.72
2022-11-30T20:09:31.191Z,96892.31
2022-11-30T20:12:01.214Z,96900.38
2022-11-30T20:14:37.531Z,96900.63
2022-11-30T20:17:08.417Z,96882.88
2022-11-30T20:19:35.506Z,96899.34
2022-11-30T20:22:08.841Z,96875.50
2022-11-30T20:24:39.626Z,96881.25
2022-11-30T20:27:09.539Z,96855.88
2022-11-30T20:29:39.145Z,96870.19
2022-11-30T20:32:06.196Z,96882.41
2022-11-30T20:34:43.701Z,96865.41
2022-11-30T20:37:18.931Z,96892.56
2022-11-30T20:39:46.353Z,96865.53
2022-11-30T20:42:13.681Z,96895.47
2022-11-30T20:44:40.374Z,96883.16
2022-11-30T20:47:07.056Z,96889.69
2022-11-30T20:49:33.748Z,96891.47
2022-11-30T20:52:00.356Z,96886.53
2022-11-30T20:54:29.954Z,96896.44
2022-11-30T20:56:58.742Z,96872.22
2022-11-30T20:59:26.809Z,96894.72
2022-11-30T21:01:55.549Z,96834.81
2022-11-30T21:04:24.545Z,96881.59
2022-11-30T21:06:51.408Z,96811.28
2022-11-30T21:09:19.910Z,96887.84
2022-11-30T21:11:47.598Z,96888.09
2022-11-30T21:14:14.882Z,96869.03
2022-11-30T21:16:41.585Z,96879.97
2022-11-30T21:19:10.646Z,96899.66
2022-11-30T21:21:38.122Z,96902.19
2022-11-30T21:24:07.723Z,96861.13
2022-11-30T21:26:39.679Z,96881.84
2022-11-30T21:29:13.311Z,96896.44
2022-11-30T21:31:40.017Z,96898.06
2022-11-30T21:34:06.780Z,96884.75
2022-11-30T21:36:33.411Z,96907.22
2022-11-30T21:39:05.958Z,96902.00
2022-11-30T21:41:38.987Z,96870.66
2022-11-30T21:44:07.392Z,96889.16
2022-11-30T21:46:34.160Z,96882.63
2022-11-30T21:49:01.334Z,96904.00
2022-11-30T21:51:29.670Z,96882.06
2022-11-30T21:53:59.569Z,96905.38
2022-11-30T21:56:29.000Z,96879.38
2022-11-30T21:58:56.687Z,96902.56
2022-11-30T22:01:25.339Z,96903.34
2022-11-30T22:03:53.979Z,96866.13
2022-11-30T22:06:20.790Z,96864.56
2022-11-30T22:08:47.439Z,96884.91
2022-11-30T22:11:16.482Z,96897.50
2022-11-30T22:13:44.052Z,96915.00
2022-11-30T22:16:15.779Z,96902.72
2022-11-30T22:18:43.622Z,96906.41
2022-11-30T22:21:13.323Z,96899.34
2022-11-30T22:23:42.449Z,96907.97
2022-11-30T22:26:09.172Z,96899.69
2022-11-30T22:28:35.905Z,96876.13
2022-11-30T22:31:04.284Z,96886.31
2022-11-30T22:33:35.476Z,96893.69
2022-11-30T22:36:03.440Z,96870.34
2022-11-30T22:38:30.287Z,96893.44
2022-11-30T22:41:13.144Z,96892.91
2022-11-30T22:43:40.227Z,96889.00
2022-11-30T22:46:13.148Z,96866.88
2022-11-30T22:48:40.800Z,96883.63
2022-11-30T22:51:10.950Z,96854.59
2022-11-30T22:53:38.202Z,96883.63
2022-11-30T22:56:12.254Z,96887.44
2022-11-30T22:58:40.117Z,96859.75
2022-11-30T23:01:26.843Z,96871.81
2022-11-30T23:03:56.765Z,96877.88
2022-11-30T23:06:24.615Z,96885.91
2022-11-30T23:08:52.281Z,96866.63
2022-11-30T23:11:21.748Z,96879.16
2022-11-30T23:13:48.975Z,96876.53
2022-11-30T23:16:16.325Z,96876.00
2022-11-30T23:18:54.819Z,96877.09
2022-11-30T23:21:30.405Z,96874.44
2022-11-30T23:24:00.397Z,96857.00
2022-11-30T23:26:29.903Z,96867.19
2022-11-30T23:29:00.643Z,96843.66
2022-11-30T23:31:33.468Z,96863.50
2022-11-30T23:34:04.353Z,96862.22
2022-11-30T23:36:31.027Z,96865.09
2022-11-30T23:39:00.596Z,96836.63
2022-11-30T23:41:27.862Z,96838.72
2022-11-30T23:43:54.846Z,96850.41
2022-11-30T23:46:21.912Z,96852.84
2022-11-30T23:48:48.764Z,96826.34
2022-11-30T23:51:15.815Z,96810.94
2022-11-30T23:53:42.506Z,96812.53
2022-11-30T23:56:13.828Z,96817.81
2022-11-30T23:58:40.493Z,96836.38
